Time;durP1;ratioP1;P1;durP2;ratioP2;P2;SDS_P1;SDS_P2;PMS_P1;PMS_P2;Temp;Humidity;BMP_temperature;BMP_pressure;BME280_temperature;BME280_humidity;BME280_pressure;Samples;Min_cycle;Max_cycle;Signal;HPM_P1;HPM_P2
2021/11/02 00:02:01;;;;;;;;;;;;;;;13.02;59.89;98547.25;4396491;32;19993;-88
2021/11/02 00:04:27;;;;;;;;;;;;;;;12.89;59.90;98549.75;4394958;32;20246;-86
2021/11/02 00:06:52;;;;;;;;;;;;;;;12.77;59.88;98547.88;4406426;32;24731;-85
2021/11/02 00:09:21;;;;;;;;;;;;;;;12.89;59.90;98556.75;4407082;32;20342;-85
2021/11/02 00:11:47;;;;;;;;;;;;;;;12.86;59.89;98549.94;4394080;32;19974;-84
2021/11/02 00:14:13;;;;;;;;;;;;;;;12.83;59.89;98546.69;4393967;32;20041;-85
2021/11/02 00:16:39;;;;;;;;;;;;;;;12.74;59.89;98550.69;4394394;32;20310;-85
2021/11/02 00:19:06;;;;;;;;;;;;;;;12.81;59.90;98551.16;4406904;32;20024;-85
2021/11/02 00:21:34;;;;;;;;;;;;;;;12.89;59.90;98548.94;4408251;32;19978;-85
2021/11/02 00:24:12;;;;;;;;;;;;;;;12.91;59.90;98541.84;4394941;32;19990;-85
2021/11/02 00:26:37;;;;;;;;;;;;;;;12.83;59.89;98538.84;4395211;32;20310;-85
2021/11/02 00:29:02;;;;;;;;;;;;;;;12.79;59.88;98535.59;4407359;32;19985;-86
2021/11/02 00:31:28;;;;;;;;;;;;;;;12.94;59.90;98532.97;4406588;32;20020;-86
2021/11/02 00:33:53;;;;;;;;;;;;;;;12.75;59.89;98528.00;4394221;32;20014;-86
2021/11/02 00:36:18;;;;;;;;;;;;;;;12.79;59.89;98535.59;4394348;32;19990;-85
2021/11/02 00:38:43;;;;;;;;;;;;;;;12.92;59.89;98527.84;4393578;32;26971;-86
2021/11/02 00:41:09;;;;;;;;;;;;;;;12.76;59.89;98516.63;4394166;32;20020;-85
2021/11/02 00:43:35;;;;;;;;;;;;;;;12.77;59.89;98513.94;4406501;32;28861;-86
2021/11/02 00:46:00;;;;;;;;;;;;;;;12.69;59.88;98505.72;4394255;32;19981;-84
2021/11/02 00:48:27;;;;;;;;;;;;;;;12.68;59.89;98508.44;4393375;32;28043;-85
2021/11/02 00:50:53;;;;;;;;;;;;;;;12.75;59.89;98501.91;4393840;32;20362;-84
2021/11/02 00:53:18;;;;;;;;;;;;;;;12.69;59.89;98497.06;4406395;32;20040;-84
2021/11/02 00:55:43;;;;;;;;;;;;;;;12.73;59.89;98488.09;4394227;32;20029;-85
2021/11/02 00:58:08;;;;;;;;;;;;;;;12.68;59.88;98493.63;4406744;32;20519;-85
2021/11/02 01:00:34;;;;;;;;;;;;;;;12.86;59.89;98489.06;4394412;32;20243;-85
2021/11/02 01:02:59;;;;;;;;;;;;;;;12.79;59.89;98493.81;4394048;32;19978;-85
2021/11/02 01:05:25;;;;;;;;;;;;;;;12.78;59.88;98499.13;4394157;32;20113;-84
2021/11/02 01:07:50;;;;;;;;;;;;;;;12.75;59.89;98491.47;4405701;32;25254;-85
2021/11/02 01:10:16;;;;;;;;;;;;;;;12.86;59.89;98489.88;4393646;32;20056;-85
2021/11/02 01:12:42;;;;;;;;;;;;;;;12.90;59.90;98487.94;4407546;32;19978;-86
2021/11/02 01:15:07;;;;;;;;;;;;;;;12.84;59.89;98488.31;4393674;32;19986;-85
2021/11/02 01:17:34;;;;;;;;;;;;;;;12.89;59.90;98486.25;4406464;32;20405;-86
2021/11/02 01:19:59;;;;;;;;;;;;;;;12.88;59.90;98488.03;4393656;32;19982;-85
2021/11/02 01:22:25;;;;;;;;;;;;;;;12.74;59.89;98485.41;4393399;32;20058;-85
2021/11/02 01:24:50;;;;;;;;;;;;;;;12.77;59.88;98476.53;4393111;32;20049;-85
2021/11/02 01:27:15;;;;;;;;;;;;;;;12.78;59.89;98467.81;4393803;32;19989;-85
2021/11/02 01:29:40;;;;;;;;;;;;;;;12.81;59.90;98470.22;4393026;32;20790;-86
2021/11/02 01:32:06;;;;;;;;;;;;;;;12.76;59.89;98470.47;4393174;32;19994;-84
2021/11/02 01:34:31;;;;;;;;;;;;;;;12.57;59.88;98465.56;4393395;32;20024;-85
2021/11/02 01:36:56;;;;;;;;;;;;;;;12.63;59.88;98476.56;4393694;32;20077;-86
2021/11/02 01:39:23;;;;;;;;;;;;;;;12.67;59.89;98471.06;4393195;32;20361;-86
2021/11/02 01:41:49;;;;;;;;;;;;;;;12.69;59.88;98469.19;4393642;32;20000;-85
2021/11/02 01:44:14;;;;;;;;;;;;;;;12.59;59.88;98461.09;4394648;32;20035;-85
2021/11/02 01:46:43;;;;;;;;;;;;;;;12.45;59.87;98458.44;4395294;32;19994;-85
2021/11/02 01:49:08;;;;;;;;;;;;;;;12.57;59.88;98457.72;4395749;32;20262;-86
2021/11/02 01:51:35;;;;;;;;;;;;;;;12.53;59.88;98439.72;4395576;32;19985;-86
2021/11/02 01:54:00;;;;;;;;;;;;;;;12.35;59.86;98435.62;4408521;32;20000;-86
2021/11/02 01:56:25;;;;;;;;;;;;;;;12.39;59.87;98437.13;4410136;32;20022;-85
2021/11/02 01:58:54;;;;;;;;;;;;;;;12.41;59.86;98435.25;4408668;32;19989;-86
2021/11/02 02:01:38;;;;;;;;;;;;;;;12.49;59.87;98436.44;4408724;32;20005;-86
2021/11/02 02:04:10;;;;;;;;;;;;;;;12.50;59.87;98434.69;4409421;32;20009;-86
2021/11/02 02:06:35;;;;;;;;;;;;;;;12.32;59.86;98428.81;4408891;32;20706;-86
2021/11/02 02:09:04;;;;;;;;;;;;;;;12.39;59.87;98427.50;4408924;32;20308;-86
2021/11/02 02:11:35;;;;;;;;;;;;;;;12.53;59.88;98424.06;4396237;32;20002;-87
2021/11/02 02:14:00;;;;;;;;;;;;;;;12.45;59.87;98426.28;4409455;32;20607;-87
2021/11/02 02:16:37;;;;;;;;;;;;;;;12.36;59.87;98421.66;4409745;32;20022;-87
2021/11/02 02:19:17;;;;;;;;;;;;;;;12.37;59.87;98416.34;4396843;32;20303;-87
2021/11/02 02:21:49;;;;;;;;;;;;;;;12.47;59.87;98417.44;4409684;32;20061;-87
2021/11/02 02:24:34;;;;;;;;;;;;;;;12.53;59.88;98427.50;4397219;32;19994;-87
2021/11/02 02:27:17;;;;;;;;;;;;;;;12.46;59.87;98420.16;4410013;32;20026;-86
2021/11/02 02:29:43;;;;;;;;;;;;;;;12.49;59.87;98422.56;4410994;32;19971;-87
2021/11/02 02:32:10;;;;;;;;;;;;;;;12.45;59.87;98434.12;4396459;32;20030;-86
2021/11/02 02:34:35;;;;;;;;;;;;;;;12.50;59.88;98419.84;4396907;32;19994;-89
2021/11/02 02:37:01;;;;;;;;;;;;;;;12.52;59.87;98425.81;4396747;32;20042;-89
2021/11/02 02:39:26;;;;;;;;;;;;;;;12.60;59.88;98433.22;4409097;32;19994;-88
2021/11/02 02:41:52;;;;;;;;;;;;;;;12.62;59.88;98426.13;4395394;32;19982;-86
2021/11/02 02:44:17;;;;;;;;;;;;;;;12.72;59.88;98434.22;4394614;32;21974;-84
2021/11/02 02:46:42;;;;;;;;;;;;;;;12.54;59.88;98438.81;4408101;32;20312;-86
2021/11/02 02:49:08;;;;;;;;;;;;;;;12.57;59.88;98436.84;4407919;32;19978;-87
2021/11/02 02:51:34;;;;;;;;;;;;;;;12.64;59.88;98432.09;4408121;32;20068;-86
2021/11/02 02:54:00;;;;;;;;;;;;;;;12.77;59.89;98445.22;4395028;32;20040;-87
2021/11/02 02:56:26;;;;;;;;;;;;;;;12.58;59.88;98441.13;4395049;32;20002;-86
2021/11/02 02:58:52;;;;;;;;;;;;;;;12.76;59.89;98443.53;4407401;32;19978;-86
2021/11/02 03:01:18;;;;;;;;;;;;;;;12.57;59.88;98439.47;4408496;32;20345;-86
2021/11/02 03:03:45;;;;;;;;;;;;;;;12.77;59.88;98438.22;4396488;32;20006;-88
2021/11/02 03:06:12;;;;;;;;;;;;;;;12.84;59.89;98436.91;4396324;32;20478;-87
2021/11/02 03:08:37;;;;;;;;;;;;;;;12.61;59.88;98432.28;4396297;32;20022;-87
2021/11/02 03:11:03;;;;;;;;;;;;;;;12.56;59.87;98435.16;4395973;32;20006;-88
2021/11/02 03:13:29;;;;;;;;;;;;;;;12.48;59.87;98436.56;4396209;32;19998;-89
2021/11/02 03:51:09;;;;;;;;;;;;;;;12.31;59.87;98384.56;4408187;32;20028;-84
2021/11/02 03:59:01;;;;;;;;;;;;;;;12.22;59.86;98381.56;4409196;32;19993;-87
2021/11/02 04:45:23;;;;;;;;;;;;;;;11.51;59.81;98299.78;4407603;32;20001;-86
2021/11/02 05:47:00;;;;;;;;;;;;;;;10.02;59.74;98208.41;4409316;32;19997;-89
2021/11/02 05:50:36;;;;;;;;;;;;;;;10.02;59.74;98216.22;4395613;32;20770;-89
2021/11/02 06:00:00;;;;;;;;;;;;;;;9.99;59.73;98238.94;4408597;32;19946;-90
2021/11/02 06:07:49;;;;;;;;;;;;;;;10.34;59.75;98263.91;4408589;32;20121;-90
2021/11/02 06:29:12;;;;;;;;;;;;;;;10.38;59.75;98259.34;4409109;32;20034;-90
2021/11/02 06:31:40;;;;;;;;;;;;;;;10.34;59.75;98261.28;4398021;32;19966;-92
2021/11/02 06:48:02;;;;;;;;;;;;;;;10.45;59.76;98282.38;4410308;32;20001;-89
2021/11/02 06:58:38;;;;;;;;;;;;;;;10.89;59.78;98289.47;4410318;32;19986;-95
2021/11/02 08:47:23;;;;;;;;;;;;;;;12.33;59.86;98354.00;4408460;32;20037;-90
2021/11/02 08:49:49;;;;;;;;;;;;;;;12.32;59.86;98363.59;4395302;32;19998;-91
2021/11/02 08:52:15;;;;;;;;;;;;;;;12.38;59.86;98363.22;4395007;32;19978;-90
2021/11/02 08:54:41;;;;;;;;;;;;;;;12.46;59.87;98355.75;4395471;32;19984;-90
2021/11/02 08:57:06;;;;;;;;;;;;;;;12.27;59.86;98358.62;4408907;32;19998;-90
2021/11/02 08:59:33;;;;;;;;;;;;;;;12.11;59.85;98355.31;4395874;32;20036;-90
2021/11/02 09:01:58;;;;;;;;;;;;;;;12.29;59.87;98355.94;4396123;32;19984;-90
2021/11/02 09:04:25;;;;;;;;;;;;;;;12.52;59.88;98364.94;4396068;32;20030;-91
2021/11/02 09:06:50;;;;;;;;;;;;;;;12.71;59.88;98360.28;4395470;32;19991;-90
2021/11/02 09:09:16;;;;;;;;;;;;;;;12.65;59.88;98367.66;4395266;32;20001;-90
2021/11/02 09:11:41;;;;;;;;;;;;;;;12.56;59.87;98372.53;4395375;32;19978;-91
2021/11/02 09:14:07;;;;;;;;;;;;;;;12.59;59.88;98377.56;4408406;32;19982;-91
2021/11/02 09:16:32;;;;;;;;;;;;;;;12.64;59.87;98377.25;4395654;32;20016;-91
2021/11/02 09:18:57;;;;;;;;;;;;;;;12.43;59.88;98382.03;4395010;32;30125;-91
2021/11/02 09:21:22;;;;;;;;;;;;;;;12.69;59.88;98375.19;4394701;32;25803;-91
2021/11/02 09:23:48;;;;;;;;;;;;;;;12.48;59.87;98377.34;4395050;32;19994;-90
2021/11/02 09:26:20;;;;;;;;;;;;;;;12.75;59.89;98368.75;4395129;32;20236;-92
2021/11/02 09:28:48;;;;;;;;;;;;;;;12.76;59.89;98371.25;4395228;32;20014;-91
2021/11/02 09:31:14;;;;;;;;;;;;;;;12.48;59.87;98374.75;4394697;32;19979;-91
2021/11/02 09:33:39;;;;;;;;;;;;;;;12.50;59.87;98377.25;4395014;32;19981;-91
2021/11/02 09:36:05;;;;;;;;;;;;;;;12.49;59.87;98367.75;4394730;32;20037;-91
2021/11/02 09:38:49;;;;;;;;;;;;;;;12.74;59.89;98369.69;4394951;32;20002;-92
2021/11/02 09:41:34;;;;;;;;;;;;;;;12.34;59.86;98356.50;4407611;32;19992;-91
2021/11/02 09:44:10;;;;;;;;;;;;;;;12.26;59.85;98356.13;4407488;32;19993;-91
2021/11/02 09:46:45;;;;;;;;;;;;;;;12.37;59.87;98351.09;4408932;32;20046;-92
2021/11/02 09:49:10;;;;;;;;;;;;;;;12.45;59.87;98345.41;4407476;32;20324;-92
2021/11/02 09:51:55;;;;;;;;;;;;;;;12.28;59.85;98351.66;4408421;32;20031;-90
2021/11/02 09:54:21;;;;;;;;;;;;;;;12.39;59.86;98351.84;4410770;32;19987;-91
2021/11/02 09:56:52;;;;;;;;;;;;;;;12.37;59.87;98351.09;4408850;32;19998;-91
2021/11/02 09:59:39;;;;;;;;;;;;;;;12.30;59.86;98344.56;4407175;32;20048;-91
2021/11/02 10:02:25;;;;;;;;;;;;;;;12.27;59.86;98342.97;4407322;32;19978;-91
2021/11/02 10:04:56;;;;;;;;;;;;;;;12.20;59.85;98333.03;4408125;32;20031;-91
2021/11/02 10:07:29;;;;;;;;;;;;;;;12.42;59.87;98327.31;4409372;32;20009;-92
2021/11/02 10:10:14;;;;;;;;;;;;;;;12.29;59.87;98320.25;4409102;32;20010;-92
2021/11/02 10:12:59;;;;;;;;;;;;;;;12.30;59.87;98310.63;4396501;32;19986;-91
2021/11/02 10:15:34;;;;;;;;;;;;;;;12.09;59.85;98311.97;4409680;32;20033;-91
2021/11/02 10:18:03;;;;;;;;;;;;;;;12.22;59.86;98302.47;4409003;32;19994;-91
2021/11/02 10:20:48;;;;;;;;;;;;;;;12.40;59.86;98308.31;4409089;32;19995;-92
2021/11/02 10:23:13;;;;;;;;;;;;;;;12.12;59.85;98307.41;4409258;32;19997;-91
2021/11/02 10:25:57;;;;;;;;;;;;;;;12.08;59.85;98303.31;4409214;32;20009;-91
2021/11/02 10:28:38;;;;;;;;;;;;;;;12.19;59.85;98293.06;4410110;32;20398;-91
2021/11/02 10:31:06;;;;;;;;;;;;;;;11.89;59.83;98285.34;4409140;32;20048;-92
2021/11/02 10:33:33;;;;;;;;;;;;;;;12.07;59.85;98267.75;4396847;32;19950;-91
2021/11/02 10:35:59;;;;;;;;;;;;;;;11.95;59.84;98273.69;4396716;32;20001;-91
2021/11/02 10:38:39;;;;;;;;;;;;;;;11.82;59.83;98268.38;4409820;32;20017;-91
2021/11/02 10:41:10;;;;;;;;;;;;;;;11.75;59.82;98268.81;4396728;32;19966;-92
2021/11/02 10:43:42;;;;;;;;;;;;;;;11.55;59.82;98252.59;4409361;32;19990;-91
2021/11/02 10:46:12;;;;;;;;;;;;;;;11.26;59.80;98248.28;4409219;32;20005;-92
2021/11/02 10:48:49;;;;;;;;;;;;;;;11.31;59.81;98248.84;4396300;32;19994;-93
2021/11/02 10:51:23;;;;;;;;;;;;;;;11.12;59.79;98246.50;4396150;32;20002;-92
2021/11/02 10:54:07;;;;;;;;;;;;;;;11.09;59.80;98246.66;4396200;32;20291;-91
2021/11/02 10:56:45;;;;;;;;;;;;;;;11.12;59.79;98253.44;4409087;32;20017;-92
2021/11/02 10:59:14;;;;;;;;;;;;;;;10.93;59.79;98245.88;4396453;32;20343;-91
2021/11/02 11:01:39;;;;;;;;;;;;;;;10.95;59.79;98246.63;4396280;32;19990;-92
2021/11/02 11:04:05;;;;;;;;;;;;;;;11.02;59.79;98255.75;4395879;32;20895;-90
2021/11/02 11:06:30;;;;;;;;;;;;;;;10.96;59.79;98253.50;4396598;32;19998;-92
2021/11/02 11:08:55;;;;;;;;;;;;;;;10.92;59.79;98262.44;4396420;32;19986;-93
2021/11/02 11:11:20;;;;;;;;;;;;;;;11.28;59.80;98268.09;4396005;32;20024;-93
2021/11/02 11:13:47;;;;;;;;;;;;;;;11.42;59.81;98267.31;4396425;32;19986;-92
2021/11/02 11:16:13;;;;;;;;;;;;;;;11.48;59.81;98272.13;4396327;32;19986;-92
2021/11/02 11:18:58;;;;;;;;;;;;;;;11.51;59.81;98258.94;4409226;32;19998;-91
2021/11/02 11:21:24;;;;;;;;;;;;;;;11.46;59.82;98260.12;4408956;32;19981;-92
2021/11/02 11:24:10;;;;;;;;;;;;;;;11.26;59.80;98253.50;4408896;32;19998;-92
2021/11/02 11:26:35;;;;;;;;;;;;;;;11.45;59.81;98256.69;4409957;32;20001;-91
2021/11/02 11:29:02;;;;;;;;;;;;;;;11.41;59.81;98264.78;4396345;32;20053;-92
2021/11/02 11:31:28;;;;;;;;;;;;;;;11.57;59.82;98268.97;4396338;32;19991;-92
2021/11/02 11:33:59;;;;;;;;;;;;;;;11.61;59.82;98272.25;4396344;32;20319;-92
2021/11/02 11:36:25;;;;;;;;;;;;;;;11.83;59.84;98288.34;4396914;32;20002;-92
2021/11/02 11:38:50;;;;;;;;;;;;;;;11.95;59.84;98299.78;4396698;32;19990;-92
2021/11/02 11:41:15;;;;;;;;;;;;;;;11.95;59.84;98316.25;4396096;32;20060;-93
2021/11/02 11:43:41;;;;;;;;;;;;;;;11.90;59.84;98323.53;4395989;32;19982;-93
2021/11/02 11:46:06;;;;;;;;;;;;;;;11.95;59.84;98339.72;4395840;32;19982;-91
2021/11/02 11:48:32;;;;;;;;;;;;;;;11.82;59.83;98337.94;4395521;32;20391;-91
2021/11/02 11:50:58;;;;;;;;;;;;;;;11.87;59.83;98341.13;4395839;32;20009;-91
2021/11/02 11:53:24;;;;;;;;;;;;;;;11.81;59.83;98339.69;4395921;32;20033;-92
2021/11/02 11:55:50;;;;;;;;;;;;;;;11.78;59.83;98337.28;4395719;32;19992;-92
2021/11/02 11:58:22;;;;;;;;;;;;;;;11.98;59.85;98347.34;4395922;32;19995;-92
2021/11/02 12:00:48;;;;;;;;;;;;;;;12.07;59.85;98334.72;4395983;32;20002;-92
2021/11/02 12:03:32;;;;;;;;;;;;;;;12.08;59.85;98333.78;4395855;32;20035;-90
2021/11/02 12:06:21;;;;;;;;;;;;;;;12.04;59.85;98327.06;4408579;32;19986;-92
2021/11/02 12:09:05;;;;;;;;;;;;;;;12.09;59.85;98338.06;4391975;32;19990;-91
2021/11/02 12:11:31;;;;;;;;;;;;;;;12.22;59.86;98332.00;4396117;32;20331;-92
2021/11/02 12:14:06;;;;;;;;;;;;;;;12.23;59.86;98320.62;4396093;32;20093;-91
2021/11/02 12:16:42;;;;;;;;;;;;;;;12.25;59.85;98310.09;4395792;32;19998;-92
2021/11/02 12:19:10;;;;;;;;;;;;;;;12.01;59.84;98322.03;4395784;32;20028;-92
2021/11/02 12:21:36;;;;;;;;;;;;;;;12.01;59.84;98327.25;4408199;32;20016;-92
2021/11/02 12:24:02;;;;;;;;;;;;;;;12.06;59.85;98326.03;4383437;32;19988;-91
2021/11/02 12:26:44;;;;;;;;;;;;;;;11.96;59.84;98325.75;4397139;32;19996;-90
2021/11/02 12:29:10;;;;;;;;;;;;;;;11.83;59.84;98327.44;4398992;32;20010;-90
2021/11/02 12:31:35;;;;;;;;;;;;;;;11.90;59.84;98315.69;4396342;32;20005;-92
2021/11/02 12:34:02;;;;;;;;;;;;;;;12.07;59.85;98317.28;4395602;32;20029;-92
2021/11/02 12:36:27;;;;;;;;;;;;;;;12.13;59.84;98321.28;4395156;32;20006;-92
2021/11/02 12:38:59;;;;;;;;;;;;;;;11.96;59.84;98324.91;4395549;32;20006;-93
2021/11/02 12:41:24;;;;;;;;;;;;;;;11.88;59.83;98337.59;4395549;32;20044;-92
2021/11/02 12:44:03;;;;;;;;;;;;;;;11.90;59.84;98336.56;4408230;32;20874;-92
2021/11/02 12:46:29;;;;;;;;;;;;;;;11.97;59.84;98337.03;4395769;32;19986;-91
2021/11/02 12:48:54;;;;;;;;;;;;;;;11.85;59.84;98338.59;4396346;32;20270;-92
2021/11/02 12:51:21;;;;;;;;;;;;;;;11.83;59.84;98332.66;4395600;32;20005;-92
2021/11/02 12:53:52;;;;;;;;;;;;;;;11.40;59.81;98343.88;4395658;32;20005;-93
2021/11/02 12:56:18;;;;;;;;;;;;;;;11.30;59.80;98340.94;4395534;32;20100;-91
2021/11/02 12:58:44;;;;;;;;;;;;;;;11.55;59.82;98341.19;4395550;32;19974;-91
2021/11/02 13:01:09;;;;;;;;;;;;;;;11.57;59.81;98335.91;4395450;32;19986;-92
2021/11/02 13:03:35;;;;;;;;;;;;;;;11.57;59.82;98343.72;4394709;32;27679;-91
2021/11/02 13:06:02;;;;;;;;;;;;;;;11.57;59.82;98335.91;4395393;32;20000;-91
2021/11/02 13:08:33;;;;;;;;;;;;;;;11.74;59.82;98330.53;4395325;32;20032;-91
2021/11/02 13:11:05;;;;;;;;;;;;;;;11.86;59.84;98332.47;4407857;32;20001;-92
2021/11/02 13:13:37;;;;;;;;;;;;;;;11.74;59.83;98342.72;4395258;32;20030;-92
2021/11/02 13:16:02;;;;;;;;;;;;;;;11.81;59.83;98338.84;4395050;32;20008;-93
2021/11/02 13:18:34;;;;;;;;;;;;;;;11.60;59.83;98339.19;4395242;32;20318;-92
2021/11/02 13:21:19;;;;;;;;;;;;;;;11.31;59.81;98337.41;4394987;32;20012;-92
2021/11/02 13:23:46;;;;;;;;;;;;;;;11.53;59.82;98337.84;4407909;32;20047;-91
2021/11/02 13:26:12;;;;;;;;;;;;;;;11.48;59.82;98339.06;4394877;32;20323;-92
2021/11/02 13:28:38;;;;;;;;;;;;;;;11.33;59.80;98339.00;4395143;32;20009;-92
2021/11/02 13:31:03;;;;;;;;;;;;;;;11.21;59.80;98342.31;4394477;32;23191;-92
2021/11/02 13:33:30;;;;;;;;;;;;;;;11.34;59.81;98342.44;4394880;32;20021;-93
2021/11/02 13:35:59;;;;;;;;;;;;;;;11.39;59.82;98337.81;4394894;32;19998;-93
2021/11/02 13:38:31;;;;;;;;;;;;;;;11.44;59.80;98343.59;4395123;32;20010;-92
2021/11/02 13:40:58;;;;;;;;;;;;;;;11.41;59.81;98341.19;4409389;32;20057;-92
2021/11/02 13:43:39;;;;;;;;;;;;;;;11.33;59.81;98339.00;4397227;32;20018;-92
2021/11/02 13:46:05;;;;;;;;;;;;;;;11.47;59.81;98334.78;4397008;32;20635;-93
2021/11/02 13:48:32;;;;;;;;;;;;;;;11.62;59.82;98334.72;4397155;32;20545;-93
2021/11/02 13:50:57;;;;;;;;;;;;;;;11.82;59.83;98333.56;4397005;32;19998;-92
2021/11/02 13:53:23;;;;;;;;;;;;;;;12.01;59.85;98343.72;4396794;32;19970;-93
2021/11/02 13:55:49;;;;;;;;;;;;;;;11.94;59.84;98340.66;4396861;32;19997;-92
2021/11/02 13:58:14;;;;;;;;;;;;;;;11.94;59.84;98330.22;4396682;32;20405;-92
2021/11/02 14:00:40;;;;;;;;;;;;;;;11.96;59.84;98330.97;4396634;32;20006;-93
2021/11/02 14:03:10;;;;;;;;;;;;;;;11.87;59.83;98348.94;4397444;32;20038;-92
2021/11/02 14:05:36;;;;;;;;;;;;;;;11.95;59.84;98347.53;4385083;32;20245;-93
2021/11/02 14:08:01;;;;;;;;;;;;;;;11.91;59.84;98350.44;4385167;32;20001;-92
2021/11/02 14:10:29;;;;;;;;;;;;;;;11.47;59.82;98348.63;4397424;32;25700;-93
2021/11/02 14:12:54;;;;;;;;;;;;;;;11.54;59.82;98369.97;4397030;32;19979;-93
2021/11/02 14:15:20;;;;;;;;;;;;;;;11.50;59.82;98379.72;4396938;32;19978;-93
2021/11/02 14:17:57;;;;;;;;;;;;;;;11.55;59.82;98374.25;4409826;32;19982;-94
2021/11/02 14:20:41;;;;;;;;;;;;;;;11.60;59.83;98369.63;4409932;32;20002;-93
2021/11/02 14:23:07;;;;;;;;;;;;;;;11.33;59.81;98378.06;4409245;32;19989;-92
2021/11/02 14:25:36;;;;;;;;;;;;;;;11.20;59.80;98397.09;4397044;32;19986;-92
2021/11/02 14:28:01;;;;;;;;;;;;;;;11.15;59.79;98397.38;4409381;32;19994;-93
2021/11/02 14:30:33;;;;;;;;;;;;;;;11.40;59.81;98395.97;4396300;32;20040;-93
2021/11/02 14:32:59;;;;;;;;;;;;;;;11.29;59.80;98402.63;4409067;32;20471;-93
2021/11/02 14:35:45;;;;;;;;;;;;;;;11.13;59.79;98407.03;4396315;32;20032;-93
2021/11/02 14:38:20;;;;;;;;;;;;;;;11.08;59.79;98394.25;4409088;32;19994;-93
2021/11/02 14:40:48;;;;;;;;;;;;;;;11.20;59.80;98397.94;4409013;32;19990;-93
2021/11/02 14:43:23;;;;;;;;;;;;;;;11.27;59.80;98394.06;4396678;32;20327;-94
2021/11/02 14:45:51;;;;;;;;;;;;;;;11.19;59.80;98401.47;4409368;32;19981;-93
2021/11/02 14:48:26;;;;;;;;;;;;;;;11.35;59.81;98404.03;4409658;32;19962;-93
2021/11/02 14:50:52;;;;;;;;;;;;;;;11.30;59.79;98398.25;4408796;32;19990;-92
2021/11/02 14:53:17;;;;;;;;;;;;;;;11.18;59.80;98398.94;4396373;32;20013;-93
2021/11/02 14:55:49;;;;;;;;;;;;;;;11.19;59.79;98401.47;4396631;32;20040;-93
2021/11/02 14:58:33;;;;;;;;;;;;;;;11.31;59.81;98397.31;4396888;32;19990;-94
2021/11/02 15:00:59;;;;;;;;;;;;;;;11.22;59.81;98411.72;4409905;32;19985;-92
2021/11/02 15:03:24;;;;;;;;;;;;;;;11.08;59.80;98422.03;4400203;32;24672;-93
2021/11/02 15:05:49;;;;;;;;;;;;;;;11.05;59.78;98417.84;4400723;32;19986;-93
2021/11/02 15:08:15;;;;;;;;;;;;;;;11.08;59.80;98424.66;4397394;32;20022;-93
2021/11/02 15:10:42;;;;;;;;;;;;;;;10.85;59.77;98435.47;4396811;32;20010;-94
2021/11/02 15:13:07;;;;;;;;;;;;;;;10.64;59.77;98440.91;4396924;32;19982;-92
2021/11/02 15:15:33;;;;;;;;;;;;;;;10.64;59.77;98446.09;4396804;32;20334;-93
2021/11/02 15:18:05;;;;;;;;;;;;;;;10.31;59.74;98448.72;4395774;32;28132;-93
2021/11/02 15:20:30;;;;;;;;;;;;;;;10.14;59.74;98451.31;4409602;32;20065;-93
2021/11/02 15:22:56;;;;;;;;;;;;;;;10.35;59.75;98454.59;4396623;32;19978;-93
2021/11/02 15:25:21;;;;;;;;;;;;;;;10.49;59.76;98451.31;4396620;32;19998;-94
2021/11/02 15:27:46;;;;;;;;;;;;;;;10.44;59.76;98457.59;4395665;32;23531;-93
2021/11/02 15:30:13;;;;;;;;;;;;;;;10.64;59.77;98453.91;4395549;32;28612;-93
2021/11/02 15:32:38;;;;;;;;;;;;;;;10.60;59.76;98465.41;4396078;32;19986;-93
2021/11/02 15:35:04;;;;;;;;;;;;;;;10.72;59.77;98469.16;4408780;32;20344;-94
2021/11/02 15:37:30;;;;;;;;;;;;;;;10.69;59.78;98470.16;4396151;32;20044;-93
2021/11/02 15:39:59;;;;;;;;;;;;;;;10.65;59.77;98479.03;4408806;32;20002;-94
2021/11/02 15:42:24;;;;;;;;;;;;;;;10.73;59.77;98474.28;4395960;32;19993;-93
2021/11/02 15:44:51;;;;;;;;;;;;;;;10.98;59.78;98468.59;4408766;32;20001;-93
2021/11/02 15:47:17;;;;;;;;;;;;;;;11.01;59.79;98471.03;4396167;32;20046;-93
2021/11/02 15:49:52;;;;;;;;;;;;;;;10.98;59.78;98471.19;4396157;32;20014;-96
2021/11/02 15:52:17;;;;;;;;;;;;;;;10.82;59.78;98477.28;4396195;32;19979;-94
2021/11/02 15:54:46;;;;;;;;;;;;;;;10.95;59.79;98486.16;4395780;32;22889;-91
2021/11/02 15:57:11;;;;;;;;;;;;;;;10.74;59.77;98496.78;4395850;32;19962;-91
2021/11/02 15:59:36;;;;;;;;;;;;;;;10.71;59.77;98499.53;4396311;32;20009;-93
2021/11/02 16:02:03;;;;;;;;;;;;;;;10.78;59.78;98500.03;4395255;32;20472;-91
2021/11/02 16:04:28;;;;;;;;;;;;;;;10.87;59.78;98501.31;4396348;32;19989;-90
2021/11/02 16:06:54;;;;;;;;;;;;;;;10.65;59.76;98510.28;4395471;32;23956;-90
2021/11/02 16:09:19;;;;;;;;;;;;;;;10.81;59.78;98519.88;4395930;32;19990;-92
2021/11/02 16:11:46;;;;;;;;;;;;;;;10.82;59.78;98521.53;4395565;32;22881;-92
2021/11/02 16:14:11;;;;;;;;;;;;;;;10.65;59.76;98523.28;4396114;32;20120;-92
2021/11/02 16:16:36;;;;;;;;;;;;;;;10.72;59.77;98531.59;4395654;32;20025;-92
2021/11/02 16:19:02;;;;;;;;;;;;;;;10.58;59.77;98537.50;4395838;32;20002;-93
2021/11/02 16:21:32;;;;;;;;;;;;;;;10.55;59.76;98544.63;4396048;32;20070;-92
2021/11/02 16:23:57;;;;;;;;;;;;;;;10.67;59.77;98550.06;4396055;32;19986;-91
2021/11/02 16:26:26;;;;;;;;;;;;;;;10.54;59.76;98561.16;4395714;32;20020;-92
2021/11/02 16:28:58;;;;;;;;;;;;;;;10.69;59.76;98561.25;4395678;32;20010;-92
2021/11/02 16:31:27;;;;;;;;;;;;;;;10.64;59.77;98560.59;4396256;32;20816;-92
2021/11/02 16:33:52;;;;;;;;;;;;;;;10.54;59.76;98566.38;4395872;32;19998;-93
2021/11/02 16:36:20;;;;;;;;;;;;;;;10.72;59.77;98573.25;4395668;32;20369;-91
2021/11/02 16:38:46;;;;;;;;;;;;;;;10.76;59.77;98578.22;4408459;32;20006;-92
2021/11/02 16:41:19;;;;;;;;;;;;;;;10.83;59.78;98586.53;4395774;32;20375;-92
2021/11/02 16:43:48;;;;;;;;;;;;;;;10.66;59.76;98584.81;4395707;32;20028;-91
2021/11/02 16:46:20;;;;;;;;;;;;;;;10.77;59.78;98587.69;4408602;32;20010;-91
2021/11/02 16:48:45;;;;;;;;;;;;;;;10.87;59.78;98595.88;4408613;32;19977;-92
2021/11/02 16:51:12;;;;;;;;;;;;;;;10.92;59.79;98596.50;4396023;32;19970;-92
2021/11/02 16:53:37;;;;;;;;;;;;;;;10.97;59.78;98604.06;4396147;32;20093;-92
2021/11/02 16:56:05;;;;;;;;;;;;;;;10.77;59.78;98602.47;4395866;32;20065;-91
2021/11/02 16:58:31;;;;;;;;;;;;;;;10.95;59.79;98600.69;4395571;32;19990;-92
2021/11/02 17:01:22;;;;;;;;;;;;;;;10.87;59.78;98608.03;4396057;32;19978;-92
2021/11/02 17:03:47;;;;;;;;;;;;;;;11.08;59.79;98609.53;4391911;32;20000;-91
2021/11/02 17:06:22;;;;;;;;;;;;;;;11.00;59.79;98614.31;4395822;32;20006;-93
2021/11/02 17:08:49;;;;;;;;;;;;;;;10.97;59.78;98630.09;4395963;32;19998;-92
2021/11/02 17:11:18;;;;;;;;;;;;;;;11.21;59.80;98628.81;4395553;32;20338;-93
2021/11/02 17:13:43;;;;;;;;;;;;;;;10.84;59.77;98624.66;4395370;32;19995;-92
2021/11/02 17:16:35;;;;;;;;;;;;;;;10.72;59.77;98630.50;4394870;32;31853;-93
2021/11/02 17:19:00;;;;;;;;;;;;;;;10.80;59.78;98641.38;4407627;32;20012;-91
2021/11/02 17:21:26;;;;;;;;;;;;;;;10.85;59.77;98646.34;4395493;32;19978;-92
2021/11/02 17:23:52;;;;;;;;;;;;;;;10.93;59.79;98655.47;4395889;32;19978;-92
2021/11/02 17:26:18;;;;;;;;;;;;;;;10.93;59.79;98652.84;4408248;32;20010;-91
2021/11/02 17:28:45;;;;;;;;;;;;;;;10.90;59.78;98649.56;4395716;32;20283;-91
2021/11/02 17:31:11;;;;;;;;;;;;;;;10.91;59.77;98659.06;4395596;32;19974;-92
2021/11/02 17:33:36;;;;;;;;;;;;;;;10.98;59.78;98657.81;4395862;32;20346;-92
2021/11/02 17:36:01;;;;;;;;;;;;;;;10.80;59.78;98664.78;4396202;32;20342;-92
2021/11/02 17:38:26;;;;;;;;;;;;;;;10.85;59.78;98660.19;4398725;32;20002;-91
2021/11/02 17:40:52;;;;;;;;;;;;;;;10.70;59.78;98664.41;4398873;32;22459;-91
2021/11/02 17:43:17;;;;;;;;;;;;;;;10.83;59.78;98672.44;4394912;32;19998;-92
2021/11/02 17:45:42;;;;;;;;;;;;;;;11.03;59.79;98674.87;4394887;32;19990;-92
2021/11/02 17:48:13;;;;;;;;;;;;;;;11.11;59.79;98671.03;4394837;32;20017;-93
2021/11/02 17:50:38;;;;;;;;;;;;;;;11.09;59.80;98676.31;4394503;32;20124;-92
2021/11/02 17:53:04;;;;;;;;;;;;;;;10.93;59.78;98681.50;4393932;32;20023;-92
2021/11/02 17:55:29;;;;;;;;;;;;;;;10.91;59.77;98682.50;4394575;32;19989;-94
2021/11/02 17:57:54;;;;;;;;;;;;;;;10.97;59.78;98677.81;4394635;32;19997;-92
2021/11/02 18:00:23;;;;;;;;;;;;;;;11.15;59.79;98670.81;4394466;32;19978;-92